Terminal Aerodrome Forecast
Issued by NWS Sterling, VA

Home | Current Version | Previous Version | Text Only | Print | Product List | Glossary On
Versions: 1 2 3 4 5 6 7 8 9 10 11 12 13 14 15 16 17 18 19 20 21 22 23
000
FTUS41 KLWX 131123
TAFBWI
TAF
KBWI 131123Z 1312/1418 28016G26KT P6SM FEW060
     FM132300 23007KT P6SM OVC080
     FM140300 VRB03KT P6SM VCSH OVC060
     FM140600 22005KT P6SM OVC060
     FM141200 28008KT P6SM BKN040
     FM141400 30009KT P6SM SCT040=

USA.gov is the U.S. government's official web portal to all federal, state and local government web resources and services.